Time;durP1;ratioP1;P1;durP2;ratioP2;P2;SDS_P1;SDS_P2;PMS_P1;PMS_P2;Temp;Humidity;BMP_temperature;BMP_pressure;BME280_temperature;BME280_humidity;BME280_pressure;Samples;Min_cycle;Max_cycle;Signal;HPM_P1;HPM_P2
2022/08/03 00:01:21;;;;;;;365.77;211.90;;;;;;;;;;5035136;28;20236;-48
2022/08/03 00:03:47;;;;;;;366.95;207.90;;;;;;;;;;5035441;28;20176;-48
2022/08/03 00:06:12;;;;;;;367.77;218.00;;;;;;;;;;5033231;28;20220;-48
2022/08/03 00:08:38;;;;;;;352.17;210.80;;;;;;;;;;5033456;28;20236;-48
2022/08/03 00:11:05;;;;;;;370.77;218.32;;;;;;;;;;5033529;28;20224;-48
2022/08/03 00:13:32;;;;;;;365.63;215.10;;;;;;;;;;5033425;28;20224;-48
2022/08/03 00:15:58;;;;;;;374.40;215.60;;;;;;;;;;5033075;28;20180;-48
2022/08/03 00:18:24;;;;;;;384.90;222.73;;;;;;;;;;5033085;28;20242;-49
2022/08/03 00:20:50;;;;;;;371.70;214.77;;;;;;;;;;5033828;28;20614;-48
2022/08/03 00:23:16;;;;;;;364.27;210.10;;;;;;;;;;5033113;28;20224;-48
2022/08/03 00:25:42;;;;;;;355.35;209.15;;;;;;;;;;5034055;28;20231;-48
2022/08/03 00:28:08;;;;;;;367.60;215.32;;;;;;;;;;5033691;28;20589;-48
2022/08/03 00:30:34;;;;;;;369.35;215.02;;;;;;;;;;5034156;28;20172;-48
2022/08/03 00:33:00;;;;;;;363.20;210.80;;;;;;;;;;5037100;28;20227;-48
2022/08/03 00:35:26;;;;;;;363.63;208.82;;;;;;;;;;5038790;28;20609;-48
2022/08/03 00:37:52;;;;;;;337.85;197.35;;;;;;;;;;5038357;28;20224;-48
2022/08/03 00:40:18;;;;;;;366.00;207.50;;;;;;;;;;5038225;28;20188;-48
2022/08/03 00:42:54;;;;;;;342.15;198.43;;;;;;;;;;5039394;28;20173;-48
2022/08/03 00:45:21;;;;;;;347.90;204.25;;;;;;;;;;5038559;28;20228;-48
2022/08/03 00:47:47;;;;;;;354.10;203.02;;;;;;;;;;5038441;28;20242;-48
2022/08/03 00:50:14;;;;;;;355.48;207.35;;;;;;;;;;5038787;28;20232;-48
2022/08/03 00:52:39;;;;;;;359.38;208.65;;;;;;;;;;5038031;28;20323;-48
2022/08/03 00:55:06;;;;;;;366.20;208.80;;;;;;;;;;5036975;28;20255;-47
2022/08/03 00:57:32;;;;;;;357.13;207.40;;;;;;;;;;5038016;28;20307;-48
2022/08/03 00:59:58;;;;;;;366.80;208.75;;;;;;;;;;5037090;28;20231;-48
2022/08/03 01:02:25;;;;;;;376.35;216.48;;;;;;;;;;5036601;28;20229;-48
2022/08/03 01:04:51;;;;;;;358.50;205.70;;;;;;;;;;5036258;28;20224;-48
2022/08/03 01:07:21;;;;;;;371.38;212.55;;;;;;;;;;5037029;28;20204;-48
2022/08/03 01:09:56;;;;;;;369.92;208.40;;;;;;;;;;5035977;28;20184;-48
2022/08/03 01:12:24;;;;;;;367.77;210.52;;;;;;;;;;5037554;28;20271;-48
2022/08/03 01:15:08;;;;;;;357.65;198.88;;;;;;;;;;5038247;28;20224;-48
2022/08/03 01:17:49;;;;;;;367.45;208.25;;;;;;;;;;5037136;28;20297;-48
2022/08/03 01:20:17;;;;;;;355.50;201.82;;;;;;;;;;5037896;28;20223;-48
2022/08/03 01:22:48;;;;;;;352.27;199.80;;;;;;;;;;5036526;28;20224;-48
2022/08/03 01:25:20;;;;;;;351.05;199.25;;;;;;;;;;5038075;28;20184;-48
2022/08/03 01:27:54;;;;;;;365.25;202.93;;;;;;;;;;5018223;28;20189;-48
2022/08/03 01:30:20;;;;;;;339.95;190.25;;;;;;;;;;5017872;28;20847;-48
2022/08/03 01:32:46;;;;;;;360.20;203.90;;;;;;;;;;5016097;28;20281;-48
2022/08/03 01:35:13;;;;;;;331.10;192.48;;;;;;;;;;5017716;28;20666;-48
2022/08/03 01:37:43;;;;;;;362.52;203.10;;;;;;;;;;5017082;28;20298;-48
2022/08/03 01:40:12;;;;;;;361.63;202.07;;;;;;;;;;5015721;28;20180;-48
2022/08/03 01:42:39;;;;;;;352.25;199.98;;;;;;;;;;5015261;28;20174;-48
2022/08/03 01:45:07;;;;;;;369.02;208.82;;;;;;;;;;5016120;28;20224;-48
2022/08/03 01:47:33;;;;;;;359.13;205.40;;;;;;;;;;5016168;28;20435;-48
2022/08/03 01:50:00;;;;;;;375.73;213.73;;;;;;;;;;5015411;28;20373;-48
2022/08/03 01:52:26;;;;;;;353.77;196.80;;;;;;;;;;5015895;28;20220;-48
2022/08/03 01:54:53;;;;;;;353.05;197.40;;;;;;;;;;5022606;28;20184;-48
2022/08/03 01:57:19;;;;;;;354.02;197.00;;;;;;;;;;5036682;28;20236;-48
2022/08/03 01:59:47;;;;;;;361.55;207.25;;;;;;;;;;5037247;28;20277;-49
2022/08/03 02:02:15;;;;;;;357.10;202.00;;;;;;;;;;5036077;28;20269;-48
2022/08/03 02:04:42;;;;;;;353.48;198.05;;;;;;;;;;5035250;28;20237;-48
2022/08/03 02:07:09;;;;;;;366.98;206.15;;;;;;;;;;5035068;28;20590;-48
2022/08/03 02:09:36;;;;;;;361.42;204.85;;;;;;;;;;5035244;28;20597;-48
2022/08/03 02:12:03;;;;;;;368.42;207.75;;;;;;;;;;5035746;28;20223;-48
2022/08/03 02:14:29;;;;;;;353.60;196.80;;;;;;;;;;5035578;28;20228;-48
2022/08/03 02:16:56;;;;;;;368.17;208.73;;;;;;;;;;5035627;28;20700;-48
2022/08/03 02:19:24;;;;;;;353.45;196.07;;;;;;;;;;5035798;28;20212;-48
2022/08/03 02:21:51;;;;;;;354.85;196.68;;;;;;;;;;5023079;28;20177;-48
2022/08/03 02:24:17;;;;;;;332.40;190.82;;;;;;;;;;5032809;28;20228;-48
2022/08/03 02:26:43;;;;;;;344.73;195.07;;;;;;;;;;5035843;28;20243;-48
2022/08/03 02:29:12;;;;;;;360.95;200.65;;;;;;;;;;5034897;28;20297;-48
2022/08/03 02:31:39;;;;;;;376.75;215.25;;;;;;;;;;5035065;28;20699;-48
2022/08/03 02:34:08;;;;;;;350.55;194.63;;;;;;;;;;5035605;28;20180;-48
2022/08/03 02:36:36;;;;;;;351.05;195.57;;;;;;;;;;5036671;28;20622;-48
2022/08/03 02:39:04;;;;;;;363.58;204.90;;;;;;;;;;5034772;28;20235;-48
2022/08/03 02:41:37;;;;;;;352.33;204.53;;;;;;;;;;5034931;28;20242;-48
2022/08/03 02:44:07;;;;;;;356.03;204.77;;;;;;;;;;5035950;28;20870;-48
2022/08/03 02:46:36;;;;;;;350.73;195.50;;;;;;;;;;5035415;28;20220;-48
2022/08/03 02:49:02;;;;;;;355.00;205.30;;;;;;;;;;5035508;28;20241;-48
2022/08/03 02:51:30;;;;;;;374.83;209.75;;;;;;;;;;5034337;28;20192;-51
2022/08/03 02:53:57;;;;;;;351.95;199.02;;;;;;;;;;5035047;28;20220;-48
2022/08/03 02:56:25;;;;;;;351.23;197.95;;;;;;;;;;5034919;28;20540;-48
2022/08/03 02:58:51;;;;;;;360.98;204.30;;;;;;;;;;5033725;28;20224;-48
2022/08/03 03:01:19;;;;;;;351.38;195.25;;;;;;;;;;5034956;28;20488;-48
2022/08/03 03:03:45;;;;;;;365.90;209.70;;;;;;;;;;5033627;28;20168;-48
2022/08/03 03:06:12;;;;;;;327.25;187.50;;;;;;;;;;5033449;28;20720;-48
2022/08/03 03:08:38;;;;;;;355.70;198.15;;;;;;;;;;5034287;28;20301;-48
2022/08/03 03:11:05;;;;;;;365.38;207.05;;;;;;;;;;5033547;28;20228;-48
2022/08/03 03:13:31;;;;;;;372.97;208.83;;;;;;;;;;5033417;28;20290;-48
2022/08/03 03:16:00;;;;;;;360.65;202.02;;;;;;;;;;5035529;28;20180;-48
2022/08/03 03:18:27;;;;;;;350.30;200.63;;;;;;;;;;5035510;28;20211;-48
2022/08/03 03:20:53;;;;;;;337.05;197.38;;;;;;;;;;5035153;28;20239;-48
2022/08/03 03:23:24;;;;;;;340.33;195.18;;;;;;;;;;5033807;28;20510;-48
2022/08/03 03:25:50;;;;;;;362.73;209.73;;;;;;;;;;5034373;28;20228;-48
2022/08/03 03:28:16;;;;;;;369.95;208.27;;;;;;;;;;5034342;28;20250;-48
2022/08/03 03:30:43;;;;;;;361.90;213.00;;;;;;;;;;5034102;28;20176;-48
2022/08/03 03:33:09;;;;;;;350.40;205.50;;;;;;;;;;5033333;28;20620;-48
2022/08/03 03:35:35;;;;;;;350.85;210.10;;;;;;;;;;5035252;28;20596;-48
2022/08/03 03:38:01;;;;;;;358.85;208.90;;;;;;;;;;5035125;28;20228;-48
2022/08/03 03:40:27;;;;;;;360.92;209.57;;;;;;;;;;5035027;28;20219;-48
2022/08/03 03:42:53;;;;;;;348.30;198.48;;;;;;;;;;5035859;28;20176;-48
2022/08/03 03:45:20;;;;;;;370.83;205.05;;;;;;;;;;5034665;28;20231;-48
2022/08/03 03:47:46;;;;;;;348.80;198.60;;;;;;;;;;5034492;28;20232;-48
2022/08/03 03:50:12;;;;;;;364.15;209.32;;;;;;;;;;5035000;28;20228;-48
2022/08/03 03:52:38;;;;;;;369.73;214.02;;;;;;;;;;5033650;28;20719;-48
2022/08/03 03:55:04;;;;;;;335.33;194.38;;;;;;;;;;5035417;28;20195;-48
2022/08/03 03:57:30;;;;;;;333.80;192.02;;;;;;;;;;5034747;28;20200;-47
2022/08/03 03:59:56;;;;;;;348.80;195.40;;;;;;;;;;5034276;28;20247;-48
2022/08/03 04:02:22;;;;;;;357.70;199.55;;;;;;;;;;5034618;28;20514;-48
2022/08/03 04:13:09;;;;;;;354.20;201.98;;;;;;;;;;5035193;28;20183;-48
2022/08/03 04:15:37;;;;;;;455.55;256.63;;;;;;;;;;5010349;28;20180;-51
2022/08/03 04:18:03;;;;;;;381.77;219.63;;;;;;;;;;5015053;28;20232;-51
2022/08/03 04:20:31;;;;;;;464.15;263.48;;;;;;;;;;5011441;28;20244;-51
2022/08/03 04:22:59;;;;;;;486.23;274.63;;;;;;;;;;5000224;28;20224;-51
2022/08/03 04:25:26;;;;;;;480.88;268.58;;;;;;;;;;5004781;28;20231;-51
2022/08/03 04:27:54;;;;;;;486.33;278.40;;;;;;;;;;5013154;28;20533;-51
2022/08/03 04:30:21;;;;;;;403.38;231.80;;;;;;;;;;5007829;28;20220;-51
2022/08/03 04:32:50;;;;;;;383.27;213.68;;;;;;;;;;5009721;28;20667;-51
2022/08/03 04:35:17;;;;;;;365.23;205.38;;;;;;;;;;5011522;28;20267;-51
2022/08/03 04:37:46;;;;;;;454.00;255.65;;;;;;;;;;5000284;28;20232;-51
2022/08/03 04:40:13;;;;;;;424.90;240.00;;;;;;;;;;5005687;28;20267;-51
2022/08/03 04:42:40;;;;;;;410.33;228.13;;;;;;;;;;5013469;28;20291;-51
2022/08/03 04:45:06;;;;;;;391.65;230.75;;;;;;;;;;5011104;28;20227;-51
2022/08/03 04:47:33;;;;;;;441.20;254.57;;;;;;;;;;5011778;28;20316;-51
2022/08/03 04:50:03;;;;;;;460.73;258.98;;;;;;;;;;5012513;28;20519;-51
2022/08/03 04:52:29;;;;;;;397.58;228.30;;;;;;;;;;5005306;28;20605;-51
2022/08/03 04:54:56;;;;;;;461.92;258.65;;;;;;;;;;5012102;28;20514;-51
2022/08/03 04:57:22;;;;;;;374.58;215.32;;;;;;;;;;5011793;28;20686;-51
2022/08/03 04:59:51;;;;;;;384.65;223.63;;;;;;;;;;5016119;28;20239;-51
2022/08/03 05:02:17;;;;;;;428.10;247.52;;;;;;;;;;5008649;28;20219;-51
2022/08/03 05:04:45;;;;;;;421.58;234.50;;;;;;;;;;5013596;28;20298;-51
2022/08/03 05:07:11;;;;;;;353.38;200.07;;;;;;;;;;5005964;28;20205;-51
2022/08/03 05:09:37;;;;;;;399.05;226.60;;;;;;;;;;5006365;28;20216;-51
2022/08/03 05:12:03;;;;;;;404.80;231.43;;;;;;;;;;5008350;28;20282;-51
2022/08/03 05:14:29;;;;;;;413.10;232.32;;;;;;;;;;5009454;28;20695;-51
2022/08/03 05:16:55;;;;;;;525.35;294.73;;;;;;;;;;5009963;28;20229;-51
2022/08/03 05:19:21;;;;;;;413.85;232.55;;;;;;;;;;5019402;28;20323;-51
2022/08/03 05:21:47;;;;;;;436.67;240.75;;;;;;;;;;5006741;28;20184;-52
2022/08/03 05:24:13;;;;;;;386.48;217.95;;;;;;;;;;5011729;28;20251;-52
2022/08/03 05:26:39;;;;;;;432.98;241.80;;;;;;;;;;5015974;28;20224;-52
2022/08/03 05:29:05;;;;;;;378.63;214.25;;;;;;;;;;5012464;28;20688;-53
2022/08/03 05:31:31;;;;;;;409.98;227.90;;;;;;;;;;5019086;28;20220;-52
2022/08/03 05:33:57;;;;;;;537.37;301.97;;;;;;;;;;4993261;28;20897;-52
2022/08/03 05:36:23;;;;;;;436.92;246.63;;;;;;;;;;5010184;28;20224;-52
2022/08/03 05:38:49;;;;;;;385.83;217.63;;;;;;;;;;5011248;28;20664;-52
2022/08/03 05:41:14;;;;;;;452.20;256.13;;;;;;;;;;5013780;28;20239;-52
2022/08/03 05:43:40;;;;;;;362.08;205.13;;;;;;;;;;5016933;28;20217;-52
2022/08/03 05:46:06;;;;;;;444.48;251.85;;;;;;;;;;5018699;28;20892;-51
2022/08/03 05:48:32;;;;;;;452.10;258.25;;;;;;;;;;5011293;28;20239;-51
2022/08/03 05:50:58;;;;;;;403.38;228.35;;;;;;;;;;5017780;28;20648;-52
2022/08/03 05:53:25;;;;;;;413.80;242.68;;;;;;;;;;5022720;28;20216;-51
2022/08/03 05:55:51;;;;;;;478.85;272.65;;;;;;;;;;5015643;28;20298;-52
2022/08/03 05:58:17;;;;;;;486.88;272.63;;;;;;;;;;5012007;28;20217;-52
2022/08/03 06:00:43;;;;;;;460.48;265.00;;;;;;;;;;5012198;28;20259;-52
2022/08/03 06:03:09;;;;;;;423.65;240.07;;;;;;;;;;5009246;28;20305;-52
2022/08/03 06:05:35;;;;;;;434.35;249.88;;;;;;;;;;5009554;28;20235;-51
2022/08/03 06:08:02;;;;;;;449.75;254.35;;;;;;;;;;5006999;28;20228;-51
2022/08/03 06:10:28;;;;;;;413.88;241.35;;;;;;;;;;5015774;28;20293;-51
2022/08/03 06:12:54;;;;;;;375.40;245.48;;;;;;;;;;5017883;28;20231;-51
2022/08/03 06:15:20;;;;;;;482.58;298.80;;;;;;;;;;5003416;28;20499;-51
2022/08/03 06:17:47;;;;;;;428.27;255.20;;;;;;;;;;5012590;28;20232;-51
2022/08/03 06:20:15;;;;;;;452.63;266.63;;;;;;;;;;5011091;28;20239;-51
2022/08/03 06:22:41;;;;;;;446.73;266.77;;;;;;;;;;5012674;28;20239;-51
2022/08/03 06:25:07;;;;;;;448.02;258.38;;;;;;;;;;5005653;28;20199;-51
2022/08/03 06:27:33;;;;;;;459.48;262.13;;;;;;;;;;5014391;28;20553;-51
2022/08/03 06:29:59;;;;;;;453.45;258.05;;;;;;;;;;5016270;28;20302;-51
2022/08/03 06:32:25;;;;;;;456.40;266.88;;;;;;;;;;5003388;28;20228;-51
2022/08/03 06:34:51;;;;;;;476.42;271.20;;;;;;;;;;5009010;28;20220;-51
2022/08/03 06:37:17;;;;;;;474.35;271.95;;;;;;;;;;5003939;28;20212;-51
2022/08/03 06:39:43;;;;;;;475.00;268.35;;;;;;;;;;5002231;28;20176;-49
2022/08/03 06:42:09;;;;;;;460.92;265.85;;;;;;;;;;5000231;28;20223;-51
2022/08/03 06:44:37;;;;;;;418.15;254.98;;;;;;;;;;5001883;28;20226;-52
2022/08/03 06:47:03;;;;;;;402.75;252.57;;;;;;;;;;5011122;28;20243;-51
2022/08/03 06:49:29;;;;;;;427.40;264.70;;;;;;;;;;5004913;28;20232;-52
2022/08/03 06:51:56;;;;;;;431.55;263.50;;;;;;;;;;5002506;28;20189;-52
2022/08/03 06:54:23;;;;;;;409.45;251.73;;;;;;;;;;5013641;28;20224;-51
2022/08/03 06:56:49;;;;;;;434.15;272.50;;;;;;;;;;5012620;28;20705;-51
2022/08/03 06:59:15;;;;;;;426.73;271.30;;;;;;;;;;5014800;28;20266;-52
2022/08/03 07:01:41;;;;;;;400.00;255.82;;;;;;;;;;5010441;28;20224;-52
2022/08/03 07:04:07;;;;;;;518.17;319.80;;;;;;;;;;5008204;28;20195;-51
2022/08/03 07:06:33;;;;;;;493.75;312.27;;;;;;;;;;5003468;28;20857;-51
2022/08/03 07:08:59;;;;;;;455.80;288.88;;;;;;;;;;4998070;28;20231;-52
2022/08/03 07:11:25;;;;;;;497.88;307.00;;;;;;;;;;5001383;28;20228;-52
2022/08/03 07:13:51;;;;;;;437.80;277.13;;;;;;;;;;5007648;28;20541;-51
2022/08/03 07:16:17;;;;;;;466.80;296.73;;;;;;;;;;5004232;28;20271;-51
2022/08/03 07:18:43;;;;;;;494.90;308.50;;;;;;;;;;5002946;28;20197;-52
2022/08/03 07:21:12;;;;;;;421.13;271.45;;;;;;;;;;5006851;28;20831;-51
2022/08/03 07:23:38;;;;;;;398.40;258.77;;;;;;;;;;5019530;28;20243;-51
2022/08/03 07:26:04;;;;;;;458.50;288.60;;;;;;;;;;5000090;28;20276;-51
2022/08/03 07:28:30;;;;;;;477.67;295.08;;;;;;;;;;4998397;28;20224;-52
2022/08/03 07:30:56;;;;;;;472.67;295.50;;;;;;;;;;5002006;28;20334;-51
2022/08/03 07:33:22;;;;;;;406.73;267.60;;;;;;;;;;5011060;28;20216;-50
2022/08/03 07:35:48;;;;;;;417.20;271.50;;;;;;;;;;5015079;28;20231;-50
2022/08/03 07:38:15;;;;;;;384.88;252.55;;;;;;;;;;5012889;28;20665;-51
2022/08/03 07:40:40;;;;;;;388.67;256.17;;;;;;;;;;5016187;28;20223;-50
2022/08/03 07:43:06;;;;;;;419.45;270.20;;;;;;;;;;5020139;28;20199;-50
2022/08/03 07:45:32;;;;;;;389.58;259.77;;;;;;;;;;5017695;28;20224;-50
2022/08/03 07:47:58;;;;;;;400.00;265.00;;;;;;;;;;5015593;28;20236;-51
2022/08/03 07:50:25;;;;;;;389.25;259.70;;;;;;;;;;5019858;28;20251;-50
2022/08/03 07:52:52;;;;;;;385.52;259.52;;;;;;;;;;5021462;28;20221;-50
2022/08/03 07:55:19;;;;;;;396.20;268.00;;;;;;;;;;5018013;28;20181;-51
2022/08/03 07:57:45;;;;;;;406.85;274.00;;;;;;;;;;5018649;28;20653;-50
2022/08/03 08:00:18;;;;;;;388.70;262.42;;;;;;;;;;5017989;28;20301;-50
2022/08/03 08:02:44;;;;;;;346.45;239.77;;;;;;;;;;5023028;28;20235;-50
2022/08/03 08:05:11;;;;;;;408.83;270.67;;;;;;;;;;5021146;28;20674;-51
2022/08/03 08:07:37;;;;;;;378.77;270.67;;;;;;;;;;5019698;28;20224;-51
2022/08/03 08:10:04;;;;;;;391.73;262.30;;;;;;;;;;5018273;28;20636;-51
2022/08/03 08:12:30;;;;;;;388.90;263.67;;;;;;;;;;5018435;28;20228;-50
2022/08/03 08:14:56;;;;;;;383.05;264.98;;;;;;;;;;5015839;28;20264;-50
2022/08/03 08:17:22;;;;;;;425.55;285.30;;;;;;;;;;5017386;28;20220;-50
2022/08/03 08:19:48;;;;;;;424.17;289.30;;;;;;;;;;5020461;28;20235;-51
2022/08/03 08:22:14;;;;;;;389.30;282.20;;;;;;;;;;5019094;28;20243;-51
2022/08/03 08:24:42;;;;;;;398.88;285.42;;;;;;;;;;5017660;28;20181;-50
2022/08/03 08:27:10;;;;;;;379.85;267.20;;;;;;;;;;5017661;28;20327;-51
2022/08/03 08:29:36;;;;;;;400.92;276.60;;;;;;;;;;5017495;28;20231;-50
2022/08/03 08:32:02;;;;;;;414.65;286.58;;;;;;;;;;5016244;28;20228;-50
2022/08/03 08:34:28;;;;;;;410.38;285.33;;;;;;;;;;5018983;28;20227;-51
2022/08/03 08:36:54;;;;;;;397.88;279.40;;;;;;;;;;5026955;28;20209;-51
2022/08/03 08:39:20;;;;;;;395.17;275.85;;;;;;;;;;5021679;28;20223;-50
2022/08/03 08:41:46;;;;;;;372.38;263.80;;;;;;;;;;5015662;28;20291;-51
2022/08/03 08:44:12;;;;;;;401.30;279.70;;;;;;;;;;5020573;28;20292;-50
2022/08/03 08:46:38;;;;;;;395.98;280.13;;;;;;;;;;5020861;28;20526;-50
2022/08/03 08:49:06;;;;;;;391.38;282.15;;;;;;;;;;5019046;28;20223;-50
2022/08/03 08:51:37;;;;;;;389.25;274.60;;;;;;;;;;5023668;28;20181;-51
2022/08/03 08:54:03;;;;;;;395.05;286.65;;;;;;;;;;5020917;28;20216;-50
2022/08/03 08:56:30;;;;;;;410.60;309.90;;;;;;;;;;5025103;28;20224;-50
2022/08/03 08:59:00;;;;;;;410.70;313.80;;;;;;;;;;5029485;28;20248;-51
2022/08/03 09:01:26;;;;;;;380.80;289.38;;;;;;;;;;5023833;28;20223;-50
2022/08/03 09:03:53;;;;;;;383.55;301.30;;;;;;;;;;5019624;28;20503;-50
2022/08/03 09:06:19;;;;;;;397.42;308.45;;;;;;;;;;5021320;28;20220;-51
2022/08/03 09:08:45;;;;;;;404.05;313.20;;;;;;;;;;5019360;28;20274;-51
2022/08/03 09:11:11;;;;;;;402.13;305.98;;;;;;;;;;5021804;28;20327;-51
2022/08/03 09:13:38;;;;;;;396.05;305.08;;;;;;;;;;5021376;28;20216;-50
2022/08/03 09:16:15;;;;;;;369.20;271.70;;;;;;;;;;5024438;28;20181;-51
2022/08/03 09:18:41;;;;;;;387.83;283.20;;;;;;;;;;5021033;28;20259;-50
2022/08/03 09:21:14;;;;;;;404.98;294.55;;;;;;;;;;5020142;28;20224;-51
2022/08/03 09:23:45;;;;;;;382.80;294.83;;;;;;;;;;5018271;28;20307;-51
2022/08/03 09:26:11;;;;;;;447.90;342.23;;;;;;;;;;5019291;28;20228;-51
2022/08/03 09:28:37;;;;;;;412.95;321.85;;;;;;;;;;5019522;28;20684;-51
2022/08/03 09:31:03;;;;;;;418.58;320.65;;;;;;;;;;5021914;28;20188;-50
2022/08/03 09:33:29;;;;;;;379.27;284.92;;;;;;;;;;5020884;28;20339;-50
2022/08/03 09:35:55;;;;;;;353.83;286.50;;;;;;;;;;5023823;28;20259;-50
2022/08/03 09:38:26;;;;;;;410.60;313.40;;;;;;;;;;5017507;28;20220;-50
2022/08/03 09:40:52;;;;;;;405.15;315.25;;;;;;;;;;5021832;28;20258;-50
2022/08/03 09:43:19;;;;;;;413.88;311.40;;;;;;;;;;5021820;28;20195;-51
2022/08/03 09:45:45;;;;;;;409.17;309.95;;;;;;;;;;5018375;28;20172;-50
2022/08/03 09:48:24;;;;;;;366.65;281.88;;;;;;;;;;5020733;28;20407;-50
2022/08/03 09:50:51;;;;;;;402.27;316.98;;;;;;;;;;5024329;28;20544;-50
2022/08/03 09:53:18;;;;;;;393.40;312.60;;;;;;;;;;5025664;28;20290;-51
2022/08/03 09:56:10;;;;;;;398.92;321.60;;;;;;;;;;5021245;28;20240;-50
2022/08/03 09:58:45;;;;;;;398.73;322.50;;;;;;;;;;5026544;28;20665;-51
2022/08/03 10:01:11;;;;;;;399.58;319.35;;;;;;;;;;5023145;28;20561;-51
2022/08/03 10:03:38;;;;;;;383.02;316.75;;;;;;;;;;5024909;28;20223;-51
2022/08/03 10:06:21;;;;;;;386.67;311.73;;;;;;;;;;5023356;28;20664;-51
2022/08/03 10:08:46;;;;;;;376.63;304.40;;;;;;;;;;5021052;28;20283;-50
2022/08/03 10:11:28;;;;;;;393.15;304.52;;;;;;;;;;5021453;28;20232;-51
2022/08/03 10:13:54;;;;;;;396.67;316.02;;;;;;;;;;5021766;28;20267;-51
2022/08/03 10:16:20;;;;;;;414.00;327.35;;;;;;;;;;5019965;28;20246;-50
2022/08/03 10:18:46;;;;;;;410.02;332.60;;;;;;;;;;5021638;28;20212;-50
2022/08/03 10:21:16;;;;;;;386.48;321.02;;;;;;;;;;5018994;28;20212;-50
2022/08/03 10:23:43;;;;;;;407.25;326.85;;;;;;;;;;5020627;28;20228;-51
2022/08/03 10:26:11;;;;;;;427.40;341.15;;;;;;;;;;5019439;28;20664;-51
2022/08/03 10:28:40;;;;;;;395.83;323.55;;;;;;;;;;5021283;28;20224;-50
2022/08/03 10:31:06;;;;;;;399.85;308.45;;;;;;;;;;5018683;28;20204;-51
2022/08/03 10:33:34;;;;;;;397.33;329.60;;;;;;;;;;5018674;28;20537;-50
2022/08/03 10:36:01;;;;;;;390.40;325.45;;;;;;;;;;5020348;28;20224;-51
2022/08/03 10:38:55;;;;;;;396.95;320.75;;;;;;;;;;5018676;28;20236;-50
2022/08/03 10:41:22;;;;;;;428.98;344.75;;;;;;;;;;5013181;28;20216;-50
2022/08/03 10:43:57;;;;;;;397.13;333.67;;;;;;;;;;5019532;28;20221;-51
2022/08/03 10:46:23;;;;;;;416.25;347.95;;;;;;;;;;5018641;28;20220;-51
2022/08/03 10:48:51;;;;;;;398.92;338.10;;;;;;;;;;5021981;28;20350;-51
2022/08/03 10:51:17;;;;;;;434.35;356.85;;;;;;;;;;5020839;28;20652;-50
2022/08/03 10:53:43;;;;;;;392.77;340.77;;;;;;;;;;5021017;28;20220;-51
2022/08/03 10:59:12;;;;;;;394.65;341.83;;;;;;;;;;5020787;28;20230;-51
2022/08/03 11:01:57;;;;;;;391.63;342.75;;;;;;;;;;5020491;28;20228;-51
2022/08/03 11:04:23;;;;;;;411.55;352.38;;;;;;;;;;5025805;28;20220;-51
2022/08/03 11:07:09;;;;;;;401.33;346.90;;;;;;;;;;5021078;28;20203;-51
2022/08/03 11:09:41;;;;;;;405.05;349.50;;;;;;;;;;5028721;28;20227;-51
2022/08/03 11:12:20;;;;;;;420.13;356.00;;;;;;;;;;5024161;28;20667;-51
2022/08/03 11:14:47;;;;;;;401.45;345.52;;;;;;;;;;5014228;28;20224;-51
2022/08/03 11:17:13;;;;;;;445.45;369.95;;;;;;;;;;5013774;28;20585;-52
2022/08/03 11:19:46;;;;;;;399.33;337.15;;;;;;;;;;5020253;28;20232;-51
2022/08/03 11:22:12;;;;;;;434.60;355.25;;;;;;;;;;5017852;28;20195;-51
2022/08/03 11:24:52;;;;;;;417.73;360.23;;;;;;;;;;5017001;28;20199;-51
2022/08/03 11:27:28;;;;;;;399.80;354.02;;;;;;;;;;5020458;28;20253;-51
2022/08/03 11:29:59;;;;;;;397.75;342.20;;;;;;;;;;5027604;28;20299;-51
2022/08/03 11:32:38;;;;;;;398.33;340.35;;;;;;;;;;5019631;28;20323;-51
2022/08/03 11:35:24;;;;;;;390.08;337.70;;;;;;;;;;5018680;28;20307;-50
2022/08/03 11:37:54;;;;;;;406.85;356.17;;;;;;;;;;5020938;28;20232;-51
2022/08/03 11:40:52;;;;;;;407.58;363.35;;;;;;;;;;5016650;28;20525;-51
2022/08/03 11:43:21;;;;;;;426.45;371.63;;;;;;;;;;4975506;28;20679;-51
2022/08/03 11:46:01;;;;;;;409.55;354.08;;;;;;;;;;5017852;28;20195;-51
2022/08/03 11:48:28;;;;;;;388.35;337.83;;;;;;;;;;5018705;28;20228;-51
2022/08/03 11:50:54;;;;;;;405.30;342.02;;;;;;;;;;5021995;28;20278;-51
2022/08/03 11:53:20;;;;;;;403.52;349.30;;;;;;;;;;5016251;28;20558;-51
2022/08/03 11:55:49;;;;;;;394.35;350.75;;;;;;;;;;5021428;28;20215;-51
2022/08/03 11:58:24;;;;;;;409.83;361.38;;;;;;;;;;5020196;28;20204;-51
2022/08/03 12:00:51;;;;;;;406.77;362.00;;;;;;;;;;5015426;28;20192;-51
2022/08/03 12:03:18;;;;;;;405.83;361.35;;;;;;;;;;5019255;28;20617;-51
2022/08/03 12:05:44;;;;;;;429.13;381.25;;;;;;;;;;5017096;28;20755;-52
2022/08/03 12:08:11;;;;;;;415.70;370.33;;;;;;;;;;5023022;28;20312;-51
2022/08/03 12:10:39;;;;;;;418.55;373.52;;;;;;;;;;5016364;28;20537;-51
2022/08/03 12:13:07;;;;;;;417.25;372.83;;;;;;;;;;5022033;28;20173;-51
2022/08/03 12:15:34;;;;;;;450.63;401.33;;;;;;;;;;5019108;28;20730;-51
2022/08/03 12:18:00;;;;;;;426.60;380.92;;;;;;;;;;5018166;28;20593;-51
2022/08/03 12:20:28;;;;;;;424.92;379.65;;;;;;;;;;5025664;28;20216;-51
2022/08/03 12:22:54;;;;;;;413.92;371.73;;;;;;;;;;5015395;28;20236;-51
2022/08/03 12:25:24;;;;;;;425.27;382.35;;;;;;;;;;5018102;28;20709;-51
2022/08/03 12:27:51;;;;;;;444.60;398.80;;;;;;;;;;5024135;28;20196;-51
2022/08/03 12:30:17;;;;;;;434.90;389.33;;;;;;;;;;5022248;28;20602;-51
2022/08/03 12:32:43;;;;;;;429.70;386.40;;;;;;;;;;5025513;28;20676;-51
2022/08/03 12:35:09;;;;;;;441.58;396.77;;;;;;;;;;5020736;28;20220;-51
2022/08/03 12:37:36;;;;;;;441.00;396.45;;;;;;;;;;5019753;28;20521;-51
2022/08/03 12:40:04;;;;;;;420.67;376.13;;;;;;;;;;5020167;28;20648;-51
2022/08/03 12:42:34;;;;;;;443.83;398.58;;;;;;;;;;5023287;28;20212;-51
2022/08/03 12:44:59;;;;;;;453.23;406.08;;;;;;;;;;5020697;28;20654;-52
2022/08/03 12:47:25;;;;;;;453.05;406.77;;;;;;;;;;5026534;28;20674;-51
2022/08/03 12:49:52;;;;;;;452.60;406.55;;;;;;;;;;5027989;28;20239;-51
2022/08/03 12:52:21;;;;;;;450.17;404.67;;;;;;;;;;5018915;28;20184;-51
2022/08/03 12:54:57;;;;;;;474.90;425.88;;;;;;;;;;5019427;28;20188;-51
2022/08/03 12:57:24;;;;;;;474.17;425.83;;;;;;;;;;5020786;28;20220;-51
2022/08/03 12:59:50;;;;;;;439.33;396.35;;;;;;;;;;5024888;28;20668;-51
2022/08/03 13:02:17;;;;;;;456.20;411.67;;;;;;;;;;5031886;28;20303;-52
2022/08/03 13:04:44;;;;;;;453.40;408.65;;;;;;;;;;5023600;28;20220;-51
2022/08/03 13:07:11;;;;;;;459.70;413.38;;;;;;;;;;5023104;28;20217;-51
2022/08/03 13:09:47;;;;;;;468.35;420.60;;;;;;;;;;5020737;28;20594;-51
2022/08/03 13:12:14;;;;;;;453.02;408.42;;;;;;;;;;5019928;28;20226;-51
2022/08/03 13:14:41;;;;;;;452.65;407.42;;;;;;;;;;5019377;28;20224;-51
2022/08/03 13:17:08;;;;;;;467.52;419.65;;;;;;;;;;5021611;28;20228;-51
2022/08/03 13:19:35;;;;;;;469.45;422.20;;;;;;;;;;5024636;28;20303;-51
2022/08/03 13:22:01;;;;;;;465.90;421.02;;;;;;;;;;5027261;28;20184;-51
2022/08/03 13:24:27;;;;;;;468.95;422.70;;;;;;;;;;5022395;28;20230;-51
2022/08/03 13:26:53;;;;;;;491.27;442.73;;;;;;;;;;5021252;28;20559;-51
2022/08/03 13:29:19;;;;;;;474.80;429.33;;;;;;;;;;5021147;28;20228;-51
2022/08/03 13:31:45;;;;;;;480.77;433.77;;;;;;;;;;5018496;28;20665;-51
2022/08/03 13:34:11;;;;;;;464.67;419.17;;;;;;;;;;5018178;28;20629;-51
2022/08/03 13:36:37;;;;;;;461.30;416.15;;;;;;;;;;5022362;28;20191;-51
2022/08/03 13:39:03;;;;;;;466.67;420.67;;;;;;;;;;5021669;28;20243;-52
2022/08/03 13:41:29;;;;;;;480.25;432.67;;;;;;;;;;5021399;28;20509;-51
2022/08/03 13:43:55;;;;;;;481.88;434.20;;;;;;;;;;5016679;28;20522;-51
2022/08/03 13:46:21;;;;;;;461.48;417.02;;;;;;;;;;5015450;28;20649;-51
2022/08/03 13:48:47;;;;;;;473.83;428.48;;;;;;;;;;5021845;28;20223;-51
2022/08/03 13:51:13;;;;;;;477.25;430.05;;;;;;;;;;5018432;28;20240;-51
2022/08/03 13:53:39;;;;;;;465.08;420.55;;;;;;;;;;5021553;28;20243;-51
2022/08/03 13:56:05;;;;;;;475.75;429.95;;;;;;;;;;5018762;28;20229;-51
2022/08/03 13:58:31;;;;;;;485.95;439.05;;;;;;;;;;5018805;28;20236;-51
2022/08/03 14:00:57;;;;;;;477.33;432.23;;;;;;;;;;5018281;28;20251;-51
2022/08/03 14:03:23;;;;;;;499.90;450.75;;;;;;;;;;5016850;28;20231;-51
2022/08/03 14:05:49;;;;;;;476.02;431.73;;;;;;;;;;5020094;28;20213;-52